Time,TemperatureF,DewpointF,PressureIn,WindDirection,WindDirectionDegrees,WindSpeedMPH,WindSpeedGustMPH,Humidity,HourlyPrecipIn,Conditions,Clouds,dailyrainin,SoftwareType,DateUTC
2013-07-23 00:00:00,68.0,65.6,29.88,East,85,0.0,0.0,92,0.00,OVC,,0.00,WeatherDisplay:10.37,2013-07-23 04:00:00,
2013-07-23 00:05:00,68.0,65.6,29.87,East,85,0.0,1.0,92,0.00,OVC,,0.00,WeatherDisplay:10.37,2013-07-23 04:05:00,
2013-07-23 00:10:00,68.1,65.7,29.87,East,85,0.0,1.0,92,0.00,OVC,,0.00,WeatherDisplay:10.37,2013-07-23 04:10:00,
2013-07-23 00:15:00,68.1,65.7,29.87,East,84,0.0,1.0,92,0.00,OVC,,0.00,WeatherDisplay:10.37,2013-07-23 04:15:00,
2013-07-23 00:20:00,68.1,65.7,29.87,East,84,0.0,2.0,92,0.00,OVC,,0.00,WeatherDisplay:10.37,2013-07-23 04:20:00,
2013-07-23 00:25:00,68.1,65.7,29.87,East,89,1.0,3.0,92,0.00,OVC,,0.00,WeatherDisplay:10.37,2013-07-23 04:25:00,
2013-07-23 00:30:00,68.1,65.4,29.87,ENE,66,1.0,3.0,91,0.00,OVC,,0.00,WeatherDisplay:10.37,2013-07-23 04:30:00,
2013-07-23 00:35:00,68.2,65.8,29.86,ENE,60,0.0,1.0,92,0.00,-RA,,0.00,WeatherDisplay:10.37,2013-07-23 04:35:00,
2013-07-23 00:40:00,68.2,65.5,29.85,NE,55,1.0,3.0,91,0.00,-RA,,0.00,WeatherDisplay:10.37,2013-07-23 04:40:00,
2013-07-23 00:45:00,68.2,65.8,29.86,NE,44,0.0,0.0,92,0.00,-RA,,0.00,WeatherDisplay:10.37,2013-07-23 04:45:00,
2013-07-23 00:50:00,68.2,65.8,29.85,NE,44,0.0,3.0,92,0.00,-RA,,0.00,WeatherDisplay:10.37,2013-07-23 04:50:00,
2013-07-23 00:55:00,68.1,65.7,29.85,NE,56,0.0,2.0,92,0.00,-RA,,0.00,WeatherDisplay:10.37,2013-07-23 04:55:00,
2013-07-23 01:00:00,68.1,65.7,29.85,ENE,68,1.0,2.0,92,0.00,-RA,,0.00,WeatherDisplay:10.37,2013-07-23 05:00:00,
2013-07-23 01:05:00,68.1,65.7,29.85,ENE,69,0.0,2.0,92,0.00,-RA,,0.00,WeatherDisplay:10.37,2013-07-23 05:05:00,
2013-07-23 01:10:00,68.1,65.7,29.85,ENE,69,0.0,2.0,92,0.00,-RA,,0.00,WeatherDisplay:10.37,2013-07-23 05:10:00,
2013-07-23 01:20:00,68.0,65.6,29.84,East,92,0.0,3.0,92,0.00,-RA,,0.00,WeatherDisplay:10.37,2013-07-23 05:20:00,
2013-07-23 01:25:00,68.0,65.9,29.84,ESE,102,1.0,3.0,93,0.00,-RA,,0.00,WeatherDisplay:10.37,2013-07-23 05:25:00,
2013-07-23 01:30:00,67.9,65.9,29.84,East,98,0.0,2.0,93,0.00,-RA,,0.00,WeatherDisplay:10.37,2013-07-23 05:30:00,
2013-07-23 01:35:00,67.9,65.5,29.84,East,96,0.0,1.0,92,0.00,-RA,,0.00,WeatherDisplay:10.37,2013-07-23 05:35:00,
2013-07-23 01:40:00,67.9,65.8,29.84,East,96,0.0,1.0,93,0.00,-RA,,0.00,WeatherDisplay:10.37,2013-07-23 05:40:00,
2013-07-23 01:45:00,67.9,65.8,29.83,East,96,0.0,2.0,93,0.00,-RA,,0.00,WeatherDisplay:10.37,2013-07-23 05:45:00,
2013-07-23 01:50:00,67.9,65.8,29.83,East,96,0.0,0.0,93,0.00,-RA,,0.00,WeatherDisplay:10.37,2013-07-23 05:50:00,
2013-07-23 01:55:00,67.9,65.8,29.83,East,96,0.0,0.0,93,0.00,-RA,,0.00,WeatherDisplay:10.37,2013-07-23 05:55:00,
2013-07-23 02:00:00,67.9,65.8,29.83,East,96,0.0,1.0,93,0.00,-RA,,0.00,WeatherDisplay:10.37,2013-07-23 06:00:00,
2013-07-23 02:10:00,67.8,65.7,29.82,East,96,0.0,0.0,93,0.00,-RA,,0.00,WeatherDisplay:10.37,2013-07-23 06:10:00,
2013-07-23 02:15:00,67.8,66.0,29.82,East,96,0.0,0.0,94,0.01,-RA,,0.01,WeatherDisplay:10.37,2013-07-23 06:15:00,
2013-07-23 02:20:00,67.8,66.0,29.81,East,96,0.0,0.0,94,0.00,-RA,,0.01,WeatherDisplay:10.37,2013-07-23 06:20:00,
2013-07-23 02:25:00,67.8,66.0,29.81,East,96,0.0,0.0,94,0.01,-RA,,0.02,WeatherDisplay:10.37,2013-07-23 06:25:00,
2013-07-23 02:30:00,67.7,65.9,29.81,East,96,0.0,3.0,94,0.00,-RA,,0.02,WeatherDisplay:10.37,2013-07-23 06:30:00,
2013-07-23 02:35:00,67.7,65.9,29.81,East,96,0.0,0.0,94,0.03,-RA,,0.05,WeatherDisplay:10.37,2013-07-23 06:35:00,
2013-07-23 02:40:00,67.7,65.9,29.80,East,96,0.0,2.0,94,0.00,-RA,,0.05,WeatherDisplay:10.37,2013-07-23 06:40:00,
2013-07-23 02:45:00,67.6,66.1,29.80,East,97,0.0,1.0,95,0.01,-RA,,0.06,WeatherDisplay:10.37,2013-07-23 06:45:00,
2013-07-23 02:50:00,67.5,66.0,29.80,East,97,0.0,1.0,95,0.00,-RA,,0.06,WeatherDisplay:10.37,2013-07-23 06:50:00,
2013-07-23 03:00:00,67.4,65.9,29.79,East,97,0.0,1.0,95,0.01,-RA,,0.07,WeatherDisplay:10.37,2013-07-23 07:00:00,
2013-07-23 03:05:00,67.4,65.9,29.79,East,89,0.0,2.0,95,0.02,-RA,,0.09,WeatherDisplay:10.37,2013-07-23 07:05:00,
2013-07-23 03:10:00,67.3,65.8,29.78,East,84,0.0,2.0,95,0.03,-RA,,0.12,WeatherDisplay:10.37,2013-07-23 07:10:00,
2013-07-23 03:15:00,67.2,65.7,29.78,East,92,1.0,3.0,95,0.03,-RA,,0.15,WeatherDisplay:10.37,2013-07-23 07:15:00,
2013-07-23 03:20:00,67.2,65.7,29.78,East,95,1.0,3.0,95,0.01,RA,,0.16,WeatherDisplay:10.37,2013-07-23 07:20:00,
2013-07-23 03:25:00,67.1,65.7,29.78,East,97,0.0,1.0,95,0.00,RA,,0.16,WeatherDisplay:10.37,2013-07-23 07:25:00,
2013-07-23 03:30:00,67.1,65.7,29.77,ESE,103,1.0,5.0,95,0.00,OVC,,0.16,WeatherDisplay:10.37,2013-07-23 07:30:00,
2013-07-23 03:35:00,67.1,65.6,29.77,East,98,0.0,2.0,95,0.00,OVC,,0.16,WeatherDisplay:10.37,2013-07-23 07:35:00,
2013-07-23 03:40:00,67.1,65.6,29.77,East,95,0.0,5.0,95,0.00,OVC,,0.16,WeatherDisplay:10.37,2013-07-23 07:40:00,
2013-07-23 03:45:00,67.1,65.6,29.77,East,79,1.0,3.0,95,0.01,RA,,0.17,WeatherDisplay:10.37,2013-07-23 07:45:00,
2013-07-23 03:50:00,67.1,65.6,29.77,NNE,27,0.0,2.0,95,0.00,RA,,0.17,WeatherDisplay:10.37,2013-07-23 07:50:00,
2013-07-23 03:55:00,67.1,65.6,29.76,NE,44,1.0,3.0,95,0.00,OVC,,0.17,WeatherDisplay:10.37,2013-07-23 07:55:00,
2013-07-23 04:00:00,67.1,65.6,29.76,East,88,0.0,5.0,95,0.00,OVC,,0.17,WeatherDisplay:10.37,2013-07-23 08:00:00,
2013-07-23 04:05:00,67.1,65.6,29.76,East,80,0.0,4.0,95,0.00,-RA,,0.17,WeatherDisplay:10.37,2013-07-23 08:05:00,
2013-07-23 04:10:00,67.1,65.6,29.76,ENE,68,2.0,5.0,95,0.00,-RA,,0.17,WeatherDisplay:10.37,2013-07-23 08:10:00,
2013-07-23 04:15:00,67.1,65.6,29.75,ENE,74,2.0,6.0,95,0.00,-RA,,0.17,WeatherDisplay:10.37,2013-07-23 08:15:00,
2013-07-23 04:20:00,67.0,65.5,29.75,ENE,60,0.0,3.0,95,0.00,-RA,,0.17,WeatherDisplay:10.37,2013-07-23 08:20:00,
2013-07-23 04:25:00,67.0,65.5,29.75,NE,43,0.0,2.0,95,0.00,-RA,,0.17,WeatherDisplay:10.37,2013-07-23 08:25:00,
2013-07-23 04:30:00,67.1,65.6,29.75,East,79,0.0,4.0,95,0.00,-RA,,0.17,WeatherDisplay:10.37,2013-07-23 08:30:00,
2013-07-23 04:35:00,67.1,65.6,29.75,East,92,2.0,5.0,95,0.00,-RA,,0.17,WeatherDisplay:10.37,2013-07-23 08:35:00,
2013-07-23 04:40:00,67.1,65.6,29.75,East,83,0.0,3.0,95,0.00,-RA,,0.17,WeatherDisplay:10.37,2013-07-23 08:40:00,
2013-07-23 04:45:00,67.1,65.9,29.75,ENE,60,0.0,1.0,96,0.01,-RA,,0.18,WeatherDisplay:10.37,2013-07-23 08:45:00,
2013-07-23 04:50:00,67.1,66.0,29.75,East,82,0.0,3.0,96,0.00,-RA,,0.18,WeatherDisplay:10.37,2013-07-23 08:50:00,
2013-07-23 04:55:00,67.1,65.9,29.75,East,99,0.0,2.0,96,0.00,-RA,,0.18,WeatherDisplay:10.37,2013-07-23 08:55:00,
2013-07-23 05:00:00,67.2,66.0,29.74,East,95,0.0,1.0,96,0.00,-RA,,0.18,WeatherDisplay:10.37,2013-07-23 09:00:00,
2013-07-23 05:05:00,67.2,66.0,29.74,ENE,67,1.0,3.0,96,0.00,-RA,,0.18,WeatherDisplay:10.37,2013-07-23 09:05:00,
2013-07-23 05:10:00,67.2,66.0,29.74,NE,49,1.0,5.0,96,0.00,-RA,,0.18,WeatherDisplay:10.37,2013-07-23 09:10:00,
2013-07-23 05:15:00,67.1,66.0,29.74,ENE,64,0.0,3.0,96,0.00,-RA,,0.18,WeatherDisplay:10.37,2013-07-23 09:15:00,
2013-07-23 05:20:00,67.1,65.9,29.74,NNE,29,0.0,4.0,96,0.01,-RA,,0.19,WeatherDisplay:10.37,2013-07-23 09:20:00,
2013-07-23 05:25:00,67.1,65.9,29.73,NE,48,0.0,3.0,96,0.00,-RA,,0.19,WeatherDisplay:10.37,2013-07-23 09:25:00,
2013-07-23 05:30:00,67.1,66.0,29.73,ENE,68,0.0,2.0,96,0.00,-RA,,0.19,WeatherDisplay:10.37,2013-07-23 09:30:00,
2013-07-23 05:35:00,67.1,66.0,29.73,ENE,57,0.0,2.0,96,0.00,-RA,,0.19,WeatherDisplay:10.37,2013-07-23 09:35:00,
2013-07-23 05:40:00,67.1,65.9,29.73,ENE,59,0.0,0.0,96,0.00,-RA,,0.19,WeatherDisplay:10.37,2013-07-23 09:40:00,
2013-07-23 05:45:00,67.2,66.0,29.73,ENE,66,0.0,4.0,96,0.00,-RA,,0.19,WeatherDisplay:10.37,2013-07-23 09:45:00,
2013-07-23 05:50:00,67.2,66.0,29.73,ENE,68,0.0,7.0,96,0.01,-RA,,0.20,WeatherDisplay:10.37,2013-07-23 09:50:00,
2013-07-23 05:55:00,67.2,66.0,29.73,ENE,75,2.0,7.0,96,0.00,-RA,,0.20,WeatherDisplay:10.37,2013-07-23 09:55:00,
2013-07-23 06:00:00,67.2,66.0,29.73,East,82,0.0,2.0,96,0.00,-RA,,0.20,WeatherDisplay:10.37,2013-07-23 10:00:00,
2013-07-23 06:05:00,67.1,66.0,29.72,ENE,70,0.0,3.0,96,0.01,-RA,,0.21,WeatherDisplay:10.37,2013-07-23 10:05:00,
2013-07-23 06:10:00,67.2,66.0,29.72,NE,50,0.0,3.0,96,0.00,-RA,,0.21,WeatherDisplay:10.37,2013-07-23 10:10:00,
2013-07-23 06:15:00,67.2,66.0,29.73,NNW,338,0.0,3.0,96,0.00,-RA,,0.21,WeatherDisplay:10.37,2013-07-23 10:15:00,
2013-07-23 06:20:00,67.2,66.0,29.72,ENE,58,1.0,5.0,96,0.01,-RA,,0.22,WeatherDisplay:10.37,2013-07-23 10:20:00,
2013-07-23 06:25:00,67.1,65.9,29.72,East,86,0.0,4.0,96,0.00,-RA,,0.22,WeatherDisplay:10.37,2013-07-23 10:25:00,
2013-07-23 06:30:00,67.2,66.0,29.72,East,80,0.0,0.0,96,0.01,-RA,,0.23,WeatherDisplay:10.37,2013-07-23 10:30:00,
2013-07-23 06:35:00,67.2,66.0,29.72,ENE,76,0.0,3.0,96,0.00,-RA,,0.23,WeatherDisplay:10.37,2013-07-23 10:35:00,
2013-07-23 06:40:00,67.2,66.0,29.72,ENE,65,0.0,5.0,96,0.01,-RA,,0.24,WeatherDisplay:10.37,2013-07-23 10:40:00,
2013-07-23 06:45:00,67.2,66.0,29.72,ENE,70,0.0,3.0,96,0.00,-RA,,0.24,WeatherDisplay:10.37,2013-07-23 10:45:00,
2013-07-23 06:50:00,67.2,66.0,29.72,NNE,30,0.0,1.0,96,0.00,-RA,,0.24,WeatherDisplay:10.37,2013-07-23 10:50:00,
2013-07-23 06:55:00,67.2,66.0,29.71,NE,34,0.0,0.0,96,0.01,-RA,,0.25,WeatherDisplay:10.37,2013-07-23 10:55:00,
2013-07-23 07:00:00,67.2,66.0,29.71,NE,51,0.0,0.0,96,0.00,-RA,,0.25,WeatherDisplay:10.37,2013-07-23 11:00:00,
2013-07-23 07:05:00,67.3,66.1,29.71,NNE,20,0.0,4.0,96,0.00,-RA,,0.25,WeatherDisplay:10.37,2013-07-23 11:05:00,
2013-07-23 07:10:00,67.3,66.1,29.70,NNW,336,0.0,3.0,96,0.00,-RA,,0.25,WeatherDisplay:10.37,2013-07-23 11:10:00,
2013-07-23 07:15:00,67.3,66.1,29.70,NNE,26,0.0,4.0,96,0.01,-RA,,0.26,WeatherDisplay:10.37,2013-07-23 11:15:00,
2013-07-23 07:20:00,67.4,66.2,29.70,ENE,77,0.0,4.0,96,0.00,-RA,,0.26,WeatherDisplay:10.37,2013-07-23 11:20:00,
2013-07-23 07:25:00,67.3,66.1,29.69,ENE,76,0.0,2.0,96,0.00,-RA,,0.26,WeatherDisplay:10.37,2013-07-23 11:25:00,
2013-07-23 07:30:00,67.4,66.2,29.69,ENE,70,0.0,1.0,96,0.02,-RA,,0.28,WeatherDisplay:10.37,2013-07-23 11:30:00,
2013-07-23 07:35:00,67.4,66.2,29.69,East,93,0.0,0.0,96,0.01,-RA,,0.29,WeatherDisplay:10.37,2013-07-23 11:35:00,
2013-07-23 07:40:00,67.4,66.2,29.69,East,99,0.0,1.0,96,0.01,-RA,,0.30,WeatherDisplay:10.37,2013-07-23 11:40:00,
2013-07-23 07:45:00,67.4,66.2,29.69,ENE,77,0.0,0.0,96,0.00,-RA,,0.30,WeatherDisplay:10.37,2013-07-23 11:45:00,
2013-07-23 07:50:00,67.5,66.3,29.69,ENE,63,0.0,0.0,96,0.02,RA,,0.32,WeatherDisplay:10.37,2013-07-23 11:50:00,
2013-07-23 07:55:00,67.5,66.3,29.69,ENE,59,0.0,0.0,96,0.02,RA,,0.34,WeatherDisplay:10.37,2013-07-23 11:55:00,
2013-07-23 08:00:00,67.5,66.3,29.68,NE,52,0.0,1.0,96,0.06,RA,,0.40,WeatherDisplay:10.37,2013-07-23 12:00:00,
2013-07-23 08:05:00,67.6,66.4,29.68,NE,34,1.0,2.0,96,0.02,RA,,0.42,WeatherDisplay:10.37,2013-07-23 12:05:00,
2013-07-23 08:10:00,67.6,66.4,29.68,NE,46,0.0,1.0,96,0.00,RA,,0.42,WeatherDisplay:10.37,2013-07-23 12:10:00,
2013-07-23 08:15:00,67.6,66.4,29.68,ENE,60,0.0,0.0,96,0.01,RA,,0.43,WeatherDisplay:10.37,2013-07-23 12:15:00,
2013-07-23 08:20:00,67.6,66.4,29.68,ENE,59,0.0,0.0,96,0.02,-RA,,0.45,WeatherDisplay:10.37,2013-07-23 12:20:00,
2013-07-23 08:25:00,67.6,66.5,29.68,ENE,59,0.0,0.0,96,0.06,-RA,,0.51,WeatherDisplay:10.37,2013-07-23 12:25:00,
2013-07-23 08:30:00,67.7,66.5,29.68,ENE,59,0.0,0.0,96,0.01,-RA,,0.52,WeatherDisplay:10.37,2013-07-23 12:30:00,
2013-07-23 08:35:00,67.8,66.6,29.67,ENE,59,0.0,0.0,96,0.01,-RA,,0.53,WeatherDisplay:10.37,2013-07-23 12:35:00,
2013-07-23 08:40:00,67.8,66.6,29.67,ENE,59,0.0,0.0,96,0.00,-RA,,0.53,WeatherDisplay:10.37,2013-07-23 12:40:00,
2013-07-23 08:45:00,67.9,66.7,29.67,ENE,59,0.0,0.0,96,0.01,-RA,,0.54,WeatherDisplay:10.37,2013-07-23 12:45:00,
2013-07-23 08:50:00,67.9,66.7,29.67,ENE,59,0.0,0.0,96,0.00,-RA,,0.54,WeatherDisplay:10.37,2013-07-23 12:50:00,
2013-07-23 08:55:00,68.0,66.8,29.67,ENE,59,0.0,0.0,96,0.00,-RA,,0.54,WeatherDisplay:10.37,2013-07-23 12:55:00,
2013-07-23 09:00:00,68.1,66.9,29.67,ENE,59,0.0,0.0,96,0.01,-RA,,0.55,WeatherDisplay:10.37,2013-07-23 13:00:00,
2013-07-23 09:05:00,68.2,67.0,29.66,ENE,59,0.0,0.0,96,0.06,-RA,,0.61,WeatherDisplay:10.37,2013-07-23 13:05:00,
2013-07-23 09:10:00,68.4,67.2,29.66,ENE,59,0.0,0.0,96,0.01,-RA,,0.62,WeatherDisplay:10.37,2013-07-23 13:10:00,
2013-07-23 09:15:00,68.4,67.3,29.66,ENE,59,0.0,0.0,96,0.00,-RA,,0.62,WeatherDisplay:10.37,2013-07-23 13:15:00,
2013-07-23 09:20:00,68.5,67.3,29.65,ENE,59,0.0,0.0,96,0.00,-RA,,0.62,WeatherDisplay:10.37,2013-07-23 13:20:00,
2013-07-23 09:25:00,68.5,67.3,29.65,ENE,59,0.0,0.0,96,0.00,-RA,,0.62,WeatherDisplay:10.37,2013-07-23 13:25:00,
2013-07-23 09:30:00,68.6,67.4,29.65,ENE,59,0.0,0.0,96,0.00,-RA,,0.62,WeatherDisplay:10.37,2013-07-23 13:30:00,
2013-07-23 09:35:00,68.7,67.5,29.65,ENE,59,0.0,0.0,96,0.00,OVC,,0.62,WeatherDisplay:10.37,2013-07-23 13:35:00,
2013-07-23 09:40:00,68.6,67.4,29.65,ENE,59,0.0,0.0,96,0.00,OVC,,0.62,WeatherDisplay:10.37,2013-07-23 13:40:00,
2013-07-23 09:45:00,68.7,67.5,29.64,ENE,59,0.0,0.0,96,0.00,OVC,,0.62,WeatherDisplay:10.37,2013-07-23 13:45:00,
2013-07-23 09:50:00,68.8,67.6,29.64,ENE,59,0.0,0.0,96,0.00,OVC,,0.62,WeatherDisplay:10.37,2013-07-23 13:50:00,
2013-07-23 09:55:00,68.9,67.7,29.64,ENE,59,0.0,0.0,96,0.00,OVC,,0.62,WeatherDisplay:10.37,2013-07-23 13:55:00,
2013-07-23 10:00:00,69.0,67.8,29.64,ENE,59,0.0,0.0,96,0.00,OVC,,0.62,WeatherDisplay:10.37,2013-07-23 14:00:00,
2013-07-23 10:05:00,69.1,67.9,29.64,ENE,59,0.0,0.0,96,0.00,OVC,,0.62,WeatherDisplay:10.37,2013-07-23 14:05:00,
2013-07-23 10:10:00,69.2,68.0,29.64,ENE,59,0.0,0.0,96,0.00,OVC,,0.62,WeatherDisplay:10.37,2013-07-23 14:10:00,
2013-07-23 10:15:00,69.3,68.1,29.64,ENE,59,0.0,0.0,96,0.00,OVC,,0.62,WeatherDisplay:10.37,2013-07-23 14:15:00,
2013-07-23 10:20:00,69.4,68.2,29.64,ENE,59,0.0,0.0,96,0.00,OVC,,0.62,WeatherDisplay:10.37,2013-07-23 14:20:00,
2013-07-23 10:25:00,69.6,68.4,29.63,ENE,59,0.0,0.0,96,0.00,OVC,,0.62,WeatherDisplay:10.37,2013-07-23 14:25:00,
2013-07-23 10:30:00,69.7,68.5,29.64,ENE,59,0.0,0.0,96,0.00,OVC,,0.62,WeatherDisplay:10.37,2013-07-23 14:30:00,
2013-07-23 10:35:00,69.8,68.6,29.63,ENE,59,0.0,0.0,96,0.00,OVC,,0.62,WeatherDisplay:10.37,2013-07-23 14:35:00,
2013-07-23 10:40:00,69.9,68.7,29.63,ENE,59,0.0,0.0,96,0.01,RA,,0.63,WeatherDisplay:10.37,2013-07-23 14:40:00,
2013-07-23 10:45:00,70.0,68.8,29.63,ENE,59,0.0,0.0,96,0.00,RA,,0.63,WeatherDisplay:10.37,2013-07-23 14:45:00,
2013-07-23 10:50:00,70.0,68.8,29.62,ENE,59,0.0,0.0,96,0.00,OVC,,0.63,WeatherDisplay:10.37,2013-07-23 14:50:00,
2013-07-23 10:55:00,70.0,68.8,29.62,ENE,59,0.0,0.0,96,0.00,OVC,,0.63,WeatherDisplay:10.37,2013-07-23 14:55:00,
2013-07-23 11:00:00,70.2,69.0,29.62,ENE,59,0.0,0.0,96,0.00,OVC,,0.63,WeatherDisplay:10.37,2013-07-23 15:00:00,
2013-07-23 11:05:00,70.3,69.1,29.62,ENE,59,0.0,0.0,96,0.00,-RA,,0.63,WeatherDisplay:10.37,2013-07-23 15:05:00,
2013-07-23 11:10:00,70.4,69.2,29.62,ENE,59,0.0,0.0,96,0.00,-RA,,0.63,WeatherDisplay:10.37,2013-07-23 15:10:00,
2013-07-23 11:15:00,70.5,69.3,29.61,ENE,59,0.0,0.0,96,0.01,-RA,,0.64,WeatherDisplay:10.37,2013-07-23 15:15:00,
2013-07-23 11:20:00,70.5,69.3,29.62,ENE,59,0.0,0.0,96,0.00,-RA,,0.64,WeatherDisplay:10.37,2013-07-23 15:20:00,
2013-07-23 11:25:00,70.6,69.4,29.62,ENE,59,0.0,0.0,96,0.01,-RA,,0.65,WeatherDisplay:10.37,2013-07-23 15:25:00,
2013-07-23 11:30:00,70.6,69.4,29.61,ENE,59,0.0,0.0,96,0.02,-RA,,0.67,WeatherDisplay:10.37,2013-07-23 15:30:00,
2013-07-23 11:35:00,70.6,69.4,29.61,ENE,59,0.0,0.0,96,0.02,RA,,0.69,WeatherDisplay:10.37,2013-07-23 15:35:00,
2013-07-23 11:40:00,70.7,69.5,29.61,ENE,59,0.0,0.0,96,0.01,RA,,0.70,WeatherDisplay:10.37,2013-07-23 15:40:00,
2013-07-23 11:45:00,70.6,69.4,29.61,ENE,59,0.0,0.0,96,0.01,RA,,0.71,WeatherDisplay:10.37,2013-07-23 15:45:00,
2013-07-23 11:50:00,70.6,69.4,29.60,ENE,59,0.0,0.0,96,0.02,RA,,0.73,WeatherDisplay:10.37,2013-07-23 15:50:00,
2013-07-23 11:55:00,70.6,69.4,29.60,ENE,59,0.0,0.0,96,0.02,RA,,0.75,WeatherDisplay:10.37,2013-07-23 15:55:00,
2013-07-23 12:00:00,70.5,69.3,29.60,ENE,59,0.0,0.0,96,0.01,RA,,0.76,WeatherDisplay:10.37,2013-07-23 16:00:00,
2013-07-23 12:05:00,70.5,69.3,29.60,ENE,59,0.0,0.0,96,0.02,-RA,,0.78,WeatherDisplay:10.37,2013-07-23 16:05:00,
2013-07-23 12:10:00,70.6,69.4,29.60,ENE,59,0.0,0.0,96,0.03,-RA,,0.81,WeatherDisplay:10.37,2013-07-23 16:10:00,
2013-07-23 12:15:00,70.6,69.4,29.60,ENE,59,0.0,0.0,96,0.02,-RA,,0.83,WeatherDisplay:10.37,2013-07-23 16:15:00,
2013-07-23 12:20:00,70.5,69.3,29.60,ENE,59,0.0,0.0,96,0.02,-RA,,0.85,WeatherDisplay:10.37,2013-07-23 16:20:00,
2013-07-23 12:25:00,70.4,69.2,29.59,ENE,59,0.0,0.0,96,0.03,-RA,,0.88,WeatherDisplay:10.37,2013-07-23 16:25:00,
2013-07-23 12:30:00,70.4,69.2,29.59,ENE,59,0.0,0.0,96,0.00,-RA,,0.88,WeatherDisplay:10.37,2013-07-23 16:30:00,
2013-07-23 12:35:00,70.4,69.2,29.59,ENE,59,0.0,0.0,96,0.00,-RA,,0.88,WeatherDisplay:10.37,2013-07-23 16:35:00,
2013-07-23 12:40:00,70.4,69.2,29.58,ENE,59,0.0,0.0,96,0.01,-RA,,0.89,WeatherDisplay:10.37,2013-07-23 16:40:00,
2013-07-23 12:45:00,70.4,69.2,29.58,ENE,59,0.0,2.0,96,0.01,-RA,,0.90,WeatherDisplay:10.37,2013-07-23 16:45:00,
2013-07-23 12:50:00,70.4,69.2,29.57,ENE,58,0.0,1.0,96,0.02,-RA,,0.92,WeatherDisplay:10.37,2013-07-23 16:50:00,
2013-07-23 12:55:00,70.4,69.2,29.58,ENE,57,0.0,0.0,96,0.00,-RA,,0.92,WeatherDisplay:10.37,2013-07-23 16:55:00,
2013-07-23 13:00:00,70.3,69.1,29.57,ENE,57,0.0,1.0,96,0.01,-RA,,0.93,WeatherDisplay:10.37,2013-07-23 17:00:00,
2013-07-23 13:05:00,70.4,69.2,29.57,ENE,58,0.0,0.0,96,0.00,-RA,,0.93,WeatherDisplay:10.37,2013-07-23 17:05:00,
2013-07-23 13:10:00,70.3,69.1,29.57,ENE,57,0.0,2.0,96,0.00,-RA,,0.93,WeatherDisplay:10.37,2013-07-23 17:10:00,
2013-07-23 13:15:00,70.2,69.0,29.56,NE,47,0.0,1.0,96,0.01,-RA,,0.94,WeatherDisplay:10.37,2013-07-23 17:15:00,
2013-07-23 13:20:00,70.4,69.2,29.56,NNE,25,1.0,2.0,96,0.00,-RA,,0.94,WeatherDisplay:10.37,2013-07-23 17:20:00,
2013-07-23 13:25:00,70.4,69.2,29.56,NNE,31,0.0,2.0,96,0.00,-RA,,0.94,WeatherDisplay:10.37,2013-07-23 17:25:00,
2013-07-23 13:30:00,70.7,69.5,29.56,NE,38,0.0,1.0,96,0.00,-RA,,0.94,WeatherDisplay:10.37,2013-07-23 17:30:00,
2013-07-23 13:35:00,71.1,69.9,29.56,NNE,29,0.0,2.0,96,0.00,-RA,,0.94,WeatherDisplay:10.37,2013-07-23 17:35:00,
2013-07-23 13:40:00,71.6,70.4,29.56,North,4,0.0,1.0,96,0.00,-RA,,0.94,WeatherDisplay:10.37,2013-07-23 17:40:00,
2013-07-23 13:45:00,72.2,71.0,29.56,North,5,0.0,1.0,96,0.00,-RA,,0.94,WeatherDisplay:10.37,2013-07-23 17:45:00,
2013-07-23 13:50:00,72.5,71.3,29.55,North,5,0.0,1.0,96,0.00,-RA,,0.94,WeatherDisplay:10.37,2013-07-23 17:50:00,
2013-07-23 13:55:00,72.9,71.6,29.56,NNE,18,1.0,2.0,96,0.00,-RA,,0.94,WeatherDisplay:10.37,2013-07-23 17:55:00,
2013-07-23 14:00:00,73.1,71.9,29.56,ENE,62,1.0,3.0,96,0.00,-RA,,0.94,WeatherDisplay:10.37,2013-07-23 18:00:00,
2013-07-23 14:05:00,73.8,72.6,29.56,ENE,75,0.0,1.0,96,0.00,OVC,,0.94,WeatherDisplay:10.37,2013-07-23 18:05:00,
2013-07-23 14:10:00,74.6,73.1,29.55,SSE,160,0.0,2.0,95,0.00,OVC,,0.94,WeatherDisplay:10.37,2013-07-23 18:10:00,
2013-07-23 14:20:00,75.8,72.9,29.55,SSE,161,1.0,3.0,91,0.00,OVC,,0.94,WeatherDisplay:10.37,2013-07-23 18:20:00,
2013-07-23 14:25:00,76.0,73.8,29.55,East,84,0.0,2.0,93,0.00,OVC,,0.94,WeatherDisplay:10.37,2013-07-23 18:25:00,
2013-07-23 14:40:00,76.1,73.9,29.55,SE,146,0.0,1.0,93,0.00,OVC,,0.94,WeatherDisplay:10.37,2013-07-23 18:40:00,
2013-07-23 14:45:00,76.5,74.4,29.55,SE,141,1.0,2.0,93,0.00,OVC,,0.94,WeatherDisplay:10.37,2013-07-23 18:45:00,
2013-07-23 14:55:00,77.4,74.2,29.55,ESE,111,1.0,2.0,90,0.00,OVC,,0.94,WeatherDisplay:10.37,2013-07-23 18:55:00,
2013-07-23 15:00:00,77.3,73.8,29.54,ESE,111,0.0,1.0,89,0.00,OVC,,0.94,WeatherDisplay:10.37,2013-07-23 19:00:00,
2013-07-23 15:05:00,77.3,74.1,29.54,ESE,111,0.0,0.0,90,0.00,OVC,,0.94,WeatherDisplay:10.37,2013-07-23 19:05:00,
2013-07-23 15:10:00,77.1,73.9,29.54,ESE,111,0.0,0.0,90,0.00,OVC,,0.94,WeatherDisplay:10.37,2013-07-23 19:10:00,
2013-07-23 15:15:00,76.9,73.7,29.54,ESE,111,0.0,1.0,90,0.00,OVC,,0.94,WeatherDisplay:10.37,2013-07-23 19:15:00,
2013-07-23 15:25:00,76.4,73.9,29.55,ESE,111,0.0,0.0,92,0.00,BKN,,0.94,WeatherDisplay:10.37,2013-07-23 19:25:00,
2013-07-23 15:30:00,76.2,73.7,29.54,ESE,111,0.0,0.0,92,0.02,RA,,0.96,WeatherDisplay:10.37,2013-07-23 19:30:00,
2013-07-23 15:40:00,75.7,73.6,29.54,ESE,111,0.0,0.0,93,0.00,RA,,0.97,WeatherDisplay:10.37,2013-07-23 19:40:00,
2013-07-23 15:45:00,75.4,73.2,29.55,ESE,111,0.0,0.0,93,0.00,BKN,,0.97,WeatherDisplay:10.37,2013-07-23 19:45:00,
2013-07-23 15:50:00,75.0,73.2,29.55,ESE,111,0.0,0.0,94,0.00,-RA,,0.97,WeatherDisplay:10.37,2013-07-23 19:50:00,
2013-07-23 15:55:00,74.9,73.1,29.54,ESE,111,0.0,0.0,94,0.00,-RA,,0.97,WeatherDisplay:10.37,2013-07-23 19:55:00,
2013-07-23 16:00:00,75.0,73.5,29.54,ESE,111,0.0,0.0,95,0.00,-RA,,0.97,WeatherDisplay:10.37,2013-07-23 20:00:00,
2013-07-23 16:05:00,74.9,73.1,29.54,ESE,111,0.0,0.0,94,0.01,RA,,0.98,WeatherDisplay:10.37,2013-07-23 20:05:00,
2013-07-23 16:10:00,74.9,73.1,29.53,ESE,111,0.0,0.0,94,0.00,RA,,0.98,WeatherDisplay:10.37,2013-07-23 20:10:00,
2013-07-23 16:15:00,74.6,72.8,29.54,ESE,111,0.0,0.0,94,0.00,BKN,,0.98,WeatherDisplay:10.37,2013-07-23 20:15:00,
2013-07-23 16:20:00,74.4,72.9,29.54,ESE,111,0.0,0.0,95,0.00,BKN,,0.98,WeatherDisplay:10.37,2013-07-23 20:20:00,
2013-07-23 16:25:00,74.4,72.9,29.54,ESE,111,0.0,0.0,95,0.00,BKN,,0.98,WeatherDisplay:10.37,2013-07-23 20:25:00,
2013-07-23 16:30:00,74.3,72.8,29.54,ESE,111,0.0,0.0,95,0.00,BKN,,0.98,WeatherDisplay:10.37,2013-07-23 20:30:00,
2013-07-23 16:35:00,74.3,72.8,29.54,ESE,111,0.0,0.0,95,0.00,BKN,,0.98,WeatherDisplay:10.37,2013-07-23 20:35:00,
2013-07-23 16:40:00,74.2,72.4,29.54,ESE,111,0.0,0.0,94,0.00,BKN,,0.98,WeatherDisplay:10.37,2013-07-23 20:40:00,
2013-07-23 16:45:00,74.0,72.2,29.54,ESE,111,0.0,0.0,94,0.00,BKN,,0.98,WeatherDisplay:10.37,2013-07-23 20:45:00,
2013-07-23 16:55:00,73.9,72.1,29.53,ESE,111,0.0,0.0,94,0.00,BKN,,0.98,WeatherDisplay:10.37,2013-07-23 20:55:00,
2013-07-23 17:00:00,73.8,72.3,29.53,ESE,111,0.0,0.0,95,0.00,BKN,,0.98,WeatherDisplay:10.37,2013-07-23 21:00:00,
2013-07-23 17:05:00,73.9,72.3,29.53,ESE,111,0.0,0.0,95,0.00,SCT,,0.98,WeatherDisplay:10.37,2013-07-23 21:05:00,
2013-07-23 17:10:00,73.9,72.4,29.53,ESE,111,0.0,0.0,95,0.00,SCT,,0.98,WeatherDisplay:10.37,2013-07-23 21:10:00,
2013-07-23 17:15:00,73.9,72.4,29.53,ESE,111,0.0,0.0,95,0.00,SCT,,0.98,WeatherDisplay:10.37,2013-07-23 21:15:00,
2013-07-23 17:30:00,73.8,72.0,29.53,SW,217,0.0,2.0,94,0.00,SCT,,0.98,WeatherDisplay:10.37,2013-07-23 21:30:00,
2013-07-23 17:35:00,73.7,71.9,29.52,SW,233,0.0,1.0,94,0.00,SCT,,0.98,WeatherDisplay:10.37,2013-07-23 21:35:00,
2013-07-23 17:40:00,73.7,71.5,29.52,WNW,300,1.0,2.0,93,0.00,SCT,,0.98,WeatherDisplay:10.37,2013-07-23 21:40:00,
2013-07-23 17:45:00,73.7,71.9,29.52,NE,42,0.0,0.0,94,0.00,SCT,,0.98,WeatherDisplay:10.37,2013-07-23 21:45:00,
2013-07-23 18:15:00,73.6,71.7,29.53,SE,124,0.0,0.0,94,0.00,SCT,,0.98,WeatherDisplay:10.37,2013-07-23 22:15:00,
2013-07-23 18:20:00,73.7,71.9,29.54,ENE,60,0.0,0.0,94,0.00,SCT,,0.98,WeatherDisplay:10.37,2013-07-23 22:20:00,
2013-07-23 18:25:00,73.8,72.0,29.53,NE,53,0.0,0.0,94,0.00,SCT,,0.98,WeatherDisplay:10.37,2013-07-23 22:25:00,
2013-07-23 18:30:00,73.7,71.5,29.54,NE,53,0.0,0.0,93,0.00,SCT,,0.98,WeatherDisplay:10.37,2013-07-23 22:30:00,
2013-07-23 18:35:00,73.7,71.5,29.54,NE,53,0.0,0.0,93,0.00,SCT,,0.98,WeatherDisplay:10.37,2013-07-23 22:35:00,
2013-07-23 18:50:00,73.6,71.5,29.54,ENE,66,0.0,0.0,93,0.00,SCT,,0.98,WeatherDisplay:10.37,2013-07-23 22:50:00,
2013-07-23 19:00:00,73.4,71.3,29.54,ENE,71,0.0,0.0,93,0.00,SCT,,0.98,WeatherDisplay:10.37,2013-07-23 23:00:00,
2013-07-23 19:05:00,73.3,71.1,29.55,ENE,71,0.0,0.0,93,0.00,FEW,,0.98,WeatherDisplay:10.37,2013-07-23 23:05:00,
2013-07-23 19:10:00,73.1,71.0,29.55,ENE,71,0.0,0.0,93,0.00,FEW,,0.98,WeatherDisplay:10.37,2013-07-23 23:10:00,
2013-07-23 19:15:00,73.0,71.2,29.55,ENE,71,0.0,0.0,94,0.00,FEW,,0.98,WeatherDisplay:10.37,2013-07-23 23:15:00,
2013-07-23 19:20:00,73.0,71.2,29.55,ENE,71,0.0,0.0,94,0.00,FEW,,0.98,WeatherDisplay:10.37,2013-07-23 23:20:00,
2013-07-23 19:25:00,72.9,71.1,29.55,ENE,71,0.0,0.0,94,0.00,FEW,,0.98,WeatherDisplay:10.37,2013-07-23 23:25:00,
2013-07-23 19:30:00,72.9,71.1,29.56,ENE,71,0.0,0.0,94,0.00,FEW,,0.98,WeatherDisplay:10.37,2013-07-23 23:30:00,
2013-07-23 19:35:00,72.9,71.4,29.56,ENE,71,0.0,0.0,95,0.00,FEW,,0.98,WeatherDisplay:10.37,2013-07-23 23:35:00,
2013-07-23 19:45:00,72.6,70.8,29.56,ENE,71,0.0,0.0,94,0.00,FEW,,0.98,WeatherDisplay:10.37,2013-07-23 23:45:00,
2013-07-23 19:50:00,72.5,70.7,29.56,ENE,71,0.0,0.0,94,0.00,FEW,,0.98,WeatherDisplay:10.37,2013-07-23 23:50:00,
2013-07-23 19:55:00,72.5,71.0,29.57,ENE,71,0.0,0.0,95,0.00,FEW,,0.98,WeatherDisplay:10.37,2013-07-23 23:55:00,
2013-07-23 20:00:00,72.4,70.9,29.57,ENE,71,0.0,0.0,95,0.00,FEW,,0.98,WeatherDisplay:10.37,2013-07-24 00:00:00,
2013-07-23 20:05:00,72.4,70.9,29.57,ENE,71,0.0,0.0,95,0.00,SCT,,0.98,WeatherDisplay:10.37,2013-07-24 00:05:00,
2013-07-23 20:10:00,72.3,70.8,29.57,ENE,71,0.0,0.0,95,0.00,SCT,,0.98,WeatherDisplay:10.37,2013-07-24 00:10:00,
2013-07-23 20:15:00,72.2,70.7,29.57,ENE,71,0.0,0.0,95,0.00,SCT,,0.98,WeatherDisplay:10.37,2013-07-24 00:15:00,
2013-07-23 20:20:00,72.1,70.6,29.57,ENE,71,0.0,0.0,95,0.00,SCT,,0.98,WeatherDisplay:10.37,2013-07-24 00:20:00,
2013-07-23 20:35:00,71.8,70.3,29.57,ENE,71,0.0,0.0,95,0.00,SCT,,0.98,WeatherDisplay:10.37,2013-07-24 00:35:00,
2013-07-23 20:40:00,71.7,70.2,29.57,ENE,71,0.0,0.0,95,0.00,SCT,,0.98,WeatherDisplay:10.37,2013-07-24 00:40:00,
2013-07-23 20:45:00,71.6,70.1,29.56,ENE,71,0.0,0.0,95,0.00,SCT,,0.98,WeatherDisplay:10.37,2013-07-24 00:45:00,
2013-07-23 20:50:00,71.4,69.9,29.57,ENE,71,0.0,1.0,95,0.00,SCT,,0.98,WeatherDisplay:10.37,2013-07-24 00:50:00,
2013-07-23 20:55:00,71.3,69.8,29.57,ENE,71,0.0,0.0,95,0.00,SCT,,0.98,WeatherDisplay:10.37,2013-07-24 00:55:00,
2013-07-23 21:00:00,71.1,69.6,29.56,ENE,71,0.0,0.0,95,0.00,SCT,,0.98,WeatherDisplay:10.37,2013-07-24 01:00:00,
2013-07-23 21:05:00,71.0,69.5,29.56,ENE,71,0.0,0.0,95,0.00,CLR,,0.98,WeatherDisplay:10.37,2013-07-24 01:05:00,
2013-07-23 21:15:00,70.8,69.3,29.57,ENE,71,0.0,0.0,95,0.00,CLR,,0.98,WeatherDisplay:10.37,2013-07-24 01:15:00,
2013-07-23 21:20:00,70.6,69.1,29.57,ENE,71,0.0,0.0,95,0.00,CLR,,0.98,WeatherDisplay:10.37,2013-07-24 01:20:00,
2013-07-23 21:25:00,70.5,69.0,29.57,ENE,71,0.0,0.0,95,0.00,CLR,,0.98,WeatherDisplay:10.37,2013-07-24 01:25:00,
2013-07-23 21:30:00,70.4,68.9,29.57,ENE,71,0.0,0.0,95,0.00,CLR,,0.98,WeatherDisplay:10.37,2013-07-24 01:30:00,
2013-07-23 21:35:00,70.3,68.8,29.57,ENE,71,0.0,0.0,95,0.00,CLR,,0.98,WeatherDisplay:10.37,2013-07-24 01:35:00,
2013-07-23 21:40:00,70.2,68.7,29.57,ENE,71,0.0,0.0,95,0.00,CLR,,0.98,WeatherDisplay:10.37,2013-07-24 01:40:00,
2013-07-23 21:45:00,70.1,68.6,29.57,ENE,71,0.0,0.0,95,0.00,CLR,,0.98,WeatherDisplay:10.37,2013-07-24 01:45:00,
2013-07-23 21:55:00,70.0,68.5,29.57,ENE,71,0.0,0.0,95,0.00,CLR,,0.98,WeatherDisplay:10.37,2013-07-24 01:55:00,
2013-07-23 22:05:00,69.8,68.6,29.58,ENE,71,0.0,0.0,96,0.00,CLR,,0.98,WeatherDisplay:10.37,2013-07-24 02:05:00,
2013-07-23 22:10:00,69.7,68.5,29.58,ENE,71,0.0,0.0,96,0.00,CLR,,0.98,WeatherDisplay:10.37,2013-07-24 02:10:00,
2013-07-23 22:15:00,69.6,68.4,29.57,ENE,71,0.0,0.0,96,0.00,CLR,,0.98,WeatherDisplay:10.37,2013-07-24 02:15:00,
2013-07-23 22:25:00,69.5,68.0,29.57,ENE,71,0.0,0.0,95,0.00,CLR,,0.98,WeatherDisplay:10.37,2013-07-24 02:25:00,
2013-07-23 22:35:00,69.4,68.2,29.58,ENE,71,0.0,0.0,96,0.00,CLR,,0.98,WeatherDisplay:10.37,2013-07-24 02:35:00,
2013-07-23 22:40:00,69.3,68.1,29.58,ENE,71,0.0,0.0,96,0.00,CLR,,0.98,WeatherDisplay:10.37,2013-07-24 02:40:00,
2013-07-23 22:45:00,69.3,68.1,29.58,ENE,71,0.0,0.0,96,0.00,CLR,,0.98,WeatherDisplay:10.37,2013-07-24 02:45:00,
2013-07-23 22:50:00,69.3,68.1,29.58,ENE,71,0.0,0.0,96,0.00,CLR,,0.98,WeatherDisplay:10.37,2013-07-24 02:50:00,
2013-07-23 22:55:00,69.3,68.1,29.58,ENE,71,0.0,0.0,96,0.00,CLR,,0.98,WeatherDisplay:10.37,2013-07-24 02:55:00,
2013-07-23 23:05:00,69.2,68.0,29.58,ENE,71,0.0,0.0,96,0.00,FEW,,0.98,WeatherDisplay:10.37,2013-07-24 03:05:00,
2013-07-23 23:10:00,69.1,67.9,29.58,ENE,71,0.0,0.0,96,0.00,FEW,,0.98,WeatherDisplay:10.37,2013-07-24 03:10:00,
2013-07-23 23:15:00,69.0,67.8,29.58,ENE,71,0.0,0.0,96,0.00,FEW,,0.98,WeatherDisplay:10.37,2013-07-24 03:15:00,
2013-07-23 23:25:00,68.8,67.6,29.58,ENE,71,0.0,0.0,96,0.00,FEW,,0.98,WeatherDisplay:10.37,2013-07-24 03:25:00,
2013-07-23 23:30:00,68.8,67.6,29.58,ENE,71,0.0,0.0,96,0.00,FEW,,0.98,WeatherDisplay:10.37,2013-07-24 03:30:00,
2013-07-23 23:35:00,68.7,67.5,29.58,ENE,71,0.0,0.0,96,0.00,FEW,,0.98,WeatherDisplay:10.37,2013-07-24 03:35:00,
2013-07-23 23:40:00,68.7,67.5,29.59,ENE,71,0.0,0.0,96,0.00,FEW,,0.98,WeatherDisplay:10.37,2013-07-24 03:40:00,
2013-07-23 23:45:00,68.6,67.4,29.58,ENE,71,0.0,0.0,96,0.00,FEW,,0.98,WeatherDisplay:10.37,2013-07-24 03:45:00,
2013-07-23 23:50:00,68.6,67.4,29.58,ENE,71,0.0,0.0,96,0.00,FEW,,0.98,WeatherDisplay:10.37,2013-07-24 03:50:00,